Time;durP1;ratioP1;P1;durP2;ratioP2;P2;SDS_P1;SDS_P2;PMS_P1;PMS_P2;Temp;Humidity;BMP_temperature;BMP_pressure;BME280_temperature;BME280_humidity;BME280_pressure;Samples;Min_cycle;Max_cycle;Signal;HPM_P1;HPM_P2
2022/03/20 00:01:44;;;;;;;29.33;16.20;;;;;;;-2.37;80.41;100386.19;4187000;28;20255;-72
2022/03/20 00:03:45;;;;;;;30.42;16.17;;;;;;;-2.40;80.53;100389.41;4193958;28;20045;-71
2022/03/20 00:05:47;;;;;;;28.85;17.25;;;;;;;-2.46;80.97;100379.53;4191575;28;20524;-71
2022/03/20 00:07:48;;;;;;;27.20;16.95;;;;;;;-2.53;80.75;100370.75;4189470;28;20484;-71
2022/03/20 00:09:51;;;;;;;29.45;16.05;;;;;;;-2.57;81.28;100367.69;4194391;28;20050;-72
2022/03/20 00:11:51;;;;;;;28.58;16.70;;;;;;;-2.61;81.66;100361.13;4192971;28;20040;-72
2022/03/20 00:13:52;;;;;;;29.55;16.08;;;;;;;-2.66;81.66;100361.03;4190634;28;20475;-71
2022/03/20 00:15:54;;;;;;;28.88;16.50;;;;;;;-2.62;82.45;100353.25;4195698;28;20450;-72
2022/03/20 00:17:54;;;;;;;28.37;17.17;;;;;;;-2.53;82.95;100365.31;4194197;28;20159;-71
2022/03/20 00:19:55;;;;;;;29.42;16.27;;;;;;;-2.52;81.77;100360.72;4189611;28;20310;-72
2022/03/20 00:21:55;;;;;;;30.23;16.02;;;;;;;-2.55;81.15;100359.34;4196377;28;20456;-72
2022/03/20 00:23:55;;;;;;;27.38;15.35;;;;;;;-2.51;81.37;100351.53;4194567;28;20036;-72
2022/03/20 00:25:57;;;;;;;31.75;16.73;;;;;;;-2.48;81.33;100359.16;4193221;28;20048;-72
2022/03/20 00:27:57;;;;;;;30.17;16.38;;;;;;;-2.48;80.93;100338.31;4193829;28;20336;-72
2022/03/20 00:29:57;;;;;;;30.88;15.52;;;;;;;-2.51;81.65;100340.69;4193367;28;20037;-72
2022/03/20 00:31:58;;;;;;;31.35;15.95;;;;;;;-2.49;81.67;100346.66;4194954;28;20066;-72
2022/03/20 00:33:58;;;;;;;28.38;16.05;;;;;;;-2.45;81.38;100337.81;4189685;28;20072;-72
2022/03/20 00:35:58;;;;;;;29.15;14.85;;;;;;;-2.43;80.89;100337.56;4194979;28;20044;-72
2022/03/20 00:37:59;;;;;;;27.00;15.98;;;;;;;-2.41;79.30;100336.22;4193217;28;20454;-72
2022/03/20 00:39:59;;;;;;;30.80;15.60;;;;;;;-2.44;80.02;100342.16;4197496;28;20426;-72
2022/03/20 00:42:00;;;;;;;22.27;14.13;;;;;;;-2.47;80.50;100339.13;4190185;28;20554;-72
2022/03/20 00:44:00;;;;;;;29.30;16.90;;;;;;;-2.47;80.97;100336.41;4194844;28;20391;-71
2022/03/20 00:46:01;;;;;;;28.67;15.88;;;;;;;-2.48;80.60;100330.19;4194348;28;20040;-73
2022/03/20 00:48:02;;;;;;;28.25;16.17;;;;;;;-2.52;80.78;100322.78;4189813;28;20291;-72
2022/03/20 00:50:02;;;;;;;31.60;16.27;;;;;;;-2.55;80.09;100332.22;4195606;28;20539;-72
2022/03/20 00:52:04;;;;;;;28.08;16.35;;;;;;;-2.55;80.82;100334.94;4193283;28;20060;-72
2022/03/20 00:54:04;;;;;;;29.85;16.67;;;;;;;-2.60;80.22;100334.84;4196142;28;20036;-72
2022/03/20 00:56:05;;;;;;;32.28;18.05;;;;;;;-2.59;81.89;100329.19;4190382;28;20021;-72
2022/03/20 00:58:05;;;;;;;34.05;17.52;;;;;;;-2.55;82.07;100332.22;4194129;28;20020;-72
2022/03/20 01:00:06;;;;;;;33.28;16.75;;;;;;;-2.59;80.45;100312.09;4194659;28;20405;-72
2022/03/20 01:02:08;;;;;;;30.88;17.42;;;;;;;-2.64;80.04;100325.59;4190344;28;20456;-72
2022/03/20 01:04:08;;;;;;;31.27;16.55;;;;;;;-2.70;80.34;100319.25;4194819;28;20024;-72
2022/03/20 01:06:10;;;;;;;31.50;17.02;;;;;;;-2.72;80.14;100318.69;4193065;28;20036;-72
2022/03/20 01:08:10;;;;;;;33.55;18.38;;;;;;;-2.73;80.79;100325.16;4197789;28;20063;-72
2022/03/20 01:10:11;;;;;;;40.88;20.48;;;;;;;-2.78;81.45;100318.84;4198063;28;20043;-72
2022/03/20 01:12:12;;;;;;;39.95;21.77;;;;;;;-2.74;81.43;100319.97;4198805;28;20439;-72
2022/03/20 01:14:13;;;;;;;38.28;20.40;;;;;;;-2.78;80.85;100318.84;4192661;28;20021;-72
2022/03/20 01:16:13;;;;;;;38.28;19.77;;;;;;;-2.83;80.79;100312.25;4200938;28;20028;-72
2022/03/20 01:18:13;;;;;;;36.58;20.40;;;;;;;-2.88;80.70;100308.66;4197410;28;20035;-72
2022/03/20 01:20:14;;;;;;;36.58;18.63;;;;;;;-2.94;81.10;100304.22;4196704;28;20621;-72
2022/03/20 01:22:15;;;;;;;30.35;17.13;;;;;;;-3.01;81.67;100301.66;4194165;28;20028;-72
2022/03/20 01:24:16;;;;;;;29.48;15.50;;;;;;;-3.05;82.30;100291.56;4190597;28;20028;-72
2022/03/20 01:26:16;;;;;;;30.08;16.50;;;;;;;-3.05;82.60;100297.81;4198376;28;20085;-72
2022/03/20 01:28:18;;;;;;;29.13;17.23;;;;;;;-3.01;82.83;100295.41;4191315;28;20037;-72
2022/03/20 01:30:18;;;;;;;27.85;16.52;;;;;;;-2.99;81.78;100294.09;4193618;28;20242;-72
2022/03/20 01:32:19;;;;;;;36.05;17.33;;;;;;;-2.95;81.73;100289.03;4198803;28;20062;-72
2022/03/20 01:34:19;;;;;;;30.20;17.65;;;;;;;-2.95;81.55;100281.72;4197583;28;20036;-72
2022/03/20 01:36:20;;;;;;;28.25;14.75;;;;;;;-2.89;81.64;100290.75;4198346;28;20082;-72
2022/03/20 01:38:21;;;;;;;29.95;16.50;;;;;;;-2.89;80.64;100279.94;4195517;28;20486;-72
2022/03/20 01:40:21;;;;;;;27.88;15.73;;;;;;;-2.89;79.76;100278.03;4195480;28;20029;-72
2022/03/20 01:42:22;;;;;;;30.83;15.20;;;;;;;-2.91;79.30;100261.19;4195869;28;20375;-72
2022/03/20 01:44:29;;;;;;;26.05;14.52;;;;;;;-2.89;80.00;100272.63;4193556;28;20044;-72
2022/03/20 01:46:32;;;;;;;26.75;15.45;;;;;;;-2.91;78.96;100265.78;4192090;28;20389;-72
2022/03/20 01:48:32;;;;;;;27.45;14.80;;;;;;;-2.90;79.60;100259.31;4189699;28;20531;-72
2022/03/20 01:50:33;;;;;;;25.33;14.68;;;;;;;-2.89;78.94;100252.84;4198508;28;20047;-72
2022/03/20 01:52:33;;;;;;;31.77;15.65;;;;;;;-2.89;78.68;100255.56;4196081;28;20032;-71
2022/03/20 01:54:33;;;;;;;27.23;16.10;;;;;;;-2.86;78.79;100258.56;4194636;28;20036;-71
2022/03/20 01:56:34;;;;;;;25.92;13.98;;;;;;;-2.78;78.63;100253.81;4196214;28;20046;-71
2022/03/20 01:58:34;;;;;;;24.15;13.77;;;;;;;-2.72;78.40;100250.94;4191137;28;20032;-71
2022/03/20 02:00:35;;;;;;;29.33;15.23;;;;;;;-2.68;78.29;100245.84;4198144;28;20044;-72
2022/03/20 02:02:35;;;;;;;24.20;14.27;;;;;;;-2.60;77.65;100242.72;4196441;28;20161;-72
2022/03/20 02:04:36;;;;;;;27.70;14.63;;;;;;;-2.60;77.46;100235.41;4193159;28;20095;-72
2022/03/20 02:06:37;;;;;;;26.27;14.20;;;;;;;-2.56;77.88;100239.28;4195331;28;20046;-72
2022/03/20 02:08:38;;;;;;;29.15;15.90;;;;;;;-2.53;77.63;100239.84;4195737;28;20383;-71
2022/03/20 02:10:40;;;;;;;25.98;14.63;;;;;;;-2.57;78.00;100236.78;4198095;28;20154;-71
2022/03/20 02:12:42;;;;;;;27.45;15.02;;;;;;;-2.54;78.28;100236.31;4189098;28;20101;-71
2022/03/20 02:14:43;;;;;;;29.08;14.57;;;;;;;-2.53;77.84;100237.94;4194052;28;20072;-71
2022/03/20 02:16:44;;;;;;;28.13;16.45;;;;;;;-2.53;78.08;100223.56;4196743;28;20059;-71
2022/03/20 02:18:46;;;;;;;28.70;14.57;;;;;;;-2.55;78.59;100242.78;4192473;28;20385;-72
2022/03/20 02:20:47;;;;;;;26.92;15.52;;;;;;;-2.53;78.87;100237.94;4196225;28;20036;-72
2022/03/20 02:22:48;;;;;;;28.20;14.50;;;;;;;-2.53;77.88;100232.53;4191595;28;20052;-72
2022/03/20 02:24:51;;;;;;;23.52;14.07;;;;;;;-2.62;77.30;100224.00;4194671;28;20227;-72
2022/03/20 02:27:00;;;;;;;27.38;15.18;;;;;;;-2.59;78.01;100233.50;4192703;28;20127;-72
2022/03/20 02:29:03;;;;;;;32.53;15.63;;;;;;;-2.64;78.00;100234.28;4191777;28;20430;-72
2022/03/20 02:31:05;;;;;;;28.67;13.65;;;;;;;-2.67;77.79;100233.94;4194954;28;20048;-72
2022/03/20 02:33:06;;;;;;;30.52;15.13;;;;;;;-2.72;77.97;100234.69;4190696;28;20036;-72
2022/03/20 02:35:11;;;;;;;28.80;15.38;;;;;;;-2.72;77.93;100231.16;4194344;28;20048;-72
2022/03/20 02:37:12;;;;;;;30.98;15.90;;;;;;;-2.80;78.80;100228.88;4193744;28;20048;-72
2022/03/20 02:39:12;;;;;;;26.65;14.88;;;;;;;-2.86;79.22;100236.09;4195242;28;20747;-72
2022/03/20 02:41:16;;;;;;;27.77;15.35;;;;;;;-2.93;80.50;100230.81;4194219;28;20160;-72
2022/03/20 02:43:17;;;;;;;28.65;14.95;;;;;;;-2.91;81.03;100246.81;4194021;28;20052;-72
2022/03/20 02:45:23;;;;;;;23.67;14.68;;;;;;;-2.96;80.31;100244.88;4194274;28;20159;-71
2022/03/20 02:47:26;;;;;;;25.48;14.70;;;;;;;-2.93;81.52;100251.69;4191781;28;20135;-71
2022/03/20 02:49:27;;;;;;;30.45;15.55;;;;;;;-2.99;80.64;100247.25;4191894;28;20036;-72
2022/03/20 02:51:27;;;;;;;30.33;15.20;;;;;;;-3.00;81.47;100241.00;4195500;28;20511;-72
2022/03/20 02:53:27;;;;;;;27.05;14.77;;;;;;;-2.94;82.04;100242.72;4198399;28;20310;-72
2022/03/20 02:55:35;;;;;;;27.30;14.23;;;;;;;-2.99;81.41;100236.41;4194484;28;20388;-72
2022/03/20 02:57:35;;;;;;;27.23;14.88;;;;;;;-3.01;81.38;100236.66;4195469;28;20050;-72
2022/03/20 02:59:35;;;;;;;32.47;14.90;;;;;;;-2.95;82.86;100246.50;4189985;28;20037;-72
2022/03/20 03:01:36;;;;;;;28.17;15.32;;;;;;;-2.94;79.98;100240.03;4191467;28;20139;-72
2022/03/20 03:03:36;;;;;;;29.25;14.73;;;;;;;-3.02;79.83;100231.50;4190327;28;20051;-72
2022/03/20 03:05:38;;;;;;;28.40;15.38;;;;;;;-3.01;81.13;100239.38;4194911;28;20373;-72
2022/03/20 03:12:17;;;;;;;26.98;15.65;;;;;;;-3.08;81.92;100235.19;4187096;28;20097;-72
2022/03/20 03:16:37;;;;;;;24.75;13.70;;;;;;;-3.15;81.32;100233.44;4193783;28;20062;-72
2022/03/20 03:18:39;;;;;;;28.13;13.65;;;;;;;-3.14;81.71;100229.69;4197106;28;20975;-72
2022/03/20 03:20:40;;;;;;;27.48;15.25;;;;;;;-3.18;82.01;100233.94;4194881;28;20338;-72
2022/03/20 03:22:40;;;;;;;30.42;14.82;;;;;;;-3.14;81.04;100231.59;4194039;28;20483;-72
2022/03/20 03:24:41;;;;;;;27.30;15.27;;;;;;;-3.18;81.14;100233.13;4196256;28;20048;-72
2022/03/20 03:26:41;;;;;;;26.92;13.98;;;;;;;-3.20;81.68;100222.53;4195654;28;20582;-72
2022/03/20 03:28:42;;;;;;;25.90;13.98;;;;;;;-3.19;81.68;100217.94;4191982;28;20028;-72
2022/03/20 03:30:45;;;;;;;26.98;15.32;;;;;;;-3.24;81.60;100221.38;4189407;28;20044;-73
2022/03/20 03:32:45;;;;;;;26.92;14.98;;;;;;;-3.21;82.34;100214.69;4196350;28;20071;-72
2022/03/20 03:37:05;;;;;;;27.08;14.25;;;;;;;-3.24;80.90;100221.38;4194271;28;20645;-72
2022/03/20 03:39:06;;;;;;;25.65;14.73;;;;;;;-3.26;80.70;100217.28;4193309;28;20048;-72
2022/03/20 03:41:06;;;;;;;27.00;15.45;;;;;;;-3.29;81.45;100220.50;4187531;28;20492;-72
2022/03/20 03:43:07;;;;;;;27.88;15.93;;;;;;;-3.33;82.36;100219.31;4193824;28;20056;-72
2022/03/20 03:45:08;;;;;;;25.05;13.77;;;;;;;-3.34;82.19;100214.97;4194282;28;20055;-72
2022/03/20 03:47:09;;;;;;;29.05;15.07;;;;;;;-3.33;82.64;100216.63;4193387;28;20048;-72
2022/03/20 03:49:09;;;;;;;24.15;13.82;;;;;;;-3.32;82.89;100215.53;4193328;28;20040;-72
2022/03/20 03:51:09;;;;;;;24.75;14.15;;;;;;;-3.34;81.80;100215.78;4192813;28;20331;-72
2022/03/20 03:53:10;;;;;;;27.38;14.80;;;;;;;-3.34;81.72;100209.56;4193558;28;20781;-72
2022/03/20 03:55:11;;;;;;;27.98;14.25;;;;;;;-3.34;82.17;100199.56;4188551;28;20044;-72
2022/03/20 03:57:11;;;;;;;26.27;14.40;;;;;;;-3.42;81.48;100206.19;4192653;28;21131;-72
2022/03/20 03:59:11;;;;;;;25.63;15.05;;;;;;;-3.41;80.89;100209.72;4194019;28;20044;-72
2022/03/20 04:01:12;;;;;;;29.20;14.68;;;;;;;-3.35;82.76;100207.94;4194791;28;20111;-72
2022/03/20 04:03:12;;;;;;;26.70;14.90;;;;;;;-3.35;81.64;100192.50;4192522;28;20079;-72
2022/03/20 04:05:15;;;;;;;28.65;15.43;;;;;;;-3.33;81.99;100198.50;4189747;28;20040;-72
2022/03/20 04:07:18;;;;;;;30.65;14.80;;;;;;;-3.37;82.12;100204.66;4195301;28;20040;-72
2022/03/20 04:09:19;;;;;;;29.15;14.38;;;;;;;-3.42;82.61;100192.66;4191920;28;20370;-72
2022/03/20 04:11:19;;;;;;;27.95;14.48;;;;;;;-3.46;82.94;100190.69;4191120;28;20127;-72
2022/03/20 04:13:19;;;;;;;25.73;14.38;;;;;;;-3.48;82.02;100195.50;4193378;28;20076;-72
2022/03/20 04:15:24;;;;;;;26.08;15.15;;;;;;;-3.56;82.38;100193.19;4193308;28;20045;-72
2022/03/20 04:17:24;;;;;;;26.42;14.88;;;;;;;-3.60;82.56;100192.88;4187223;28;20091;-72
2022/03/20 04:19:25;;;;;;;26.23;14.70;;;;;;;-3.61;81.99;100198.53;4193156;28;20076;-72
2022/03/20 04:21:25;;;;;;;29.90;15.38;;;;;;;-3.67;82.14;100201.16;4194743;28;20132;-72
2022/03/20 04:25:44;;;;;;;26.77;15.05;;;;;;;-3.76;81.89;100197.19;4190480;28;20059;-72
2022/03/20 04:27:45;;;;;;;29.83;15.07;;;;;;;-3.75;83.37;100201.53;4193060;28;20036;-72
2022/03/20 04:29:46;;;;;;;28.80;15.32;;;;;;;-3.76;82.98;100201.78;4192876;28;20048;-72
2022/03/20 04:31:50;;;;;;;26.70;15.55;;;;;;;-3.76;82.94;100197.19;4190425;28;20048;-72
2022/03/20 04:33:53;;;;;;;29.35;15.50;;;;;;;-3.72;83.38;100197.53;4197039;28;20045;-72
2022/03/20 04:35:53;;;;;;;30.90;15.25;;;;;;;-3.72;83.37;100202.97;4194349;28;20044;-72
2022/03/20 04:37:55;;;;;;;26.60;15.18;;;;;;;-3.71;82.92;100196.47;4191509;28;20045;-72
2022/03/20 04:39:55;;;;;;;25.48;14.82;;;;;;;-3.73;82.57;100195.88;4189540;28;20446;-72
2022/03/20 04:41:56;;;;;;;23.63;14.25;;;;;;;-3.74;83.43;100195.06;4198127;28;20057;-72
2022/03/20 04:43:56;;;;;;;26.10;14.95;;;;;;;-3.77;82.76;100197.44;4195772;28;20048;-72
2022/03/20 04:45:57;;;;;;;30.80;15.30;;;;;;;-3.82;81.43;100197.34;4193575;28;20105;-72
2022/03/20 04:59:32;;;;;;;34.38;15.60;;;;;;;-4.31;84.76;100191.50;4195454;28;20052;-72
2022/03/20 05:01:32;;;;;;;28.27;15.77;;;;;;;-4.29;84.93;100208.31;4197023;28;20045;-72
2022/03/20 05:03:34;;;;;;;28.50;14.77;;;;;;;-4.26;85.05;100211.34;4191287;28;20459;-72
2022/03/20 05:05:36;;;;;;;27.05;13.95;;;;;;;-4.29;84.53;100213.72;4194005;28;20051;-72
2022/03/20 05:07:37;;;;;;;28.73;15.65;;;;;;;-4.27;85.06;100219.72;4193316;28;20093;-72
2022/03/20 05:14:16;;;;;;;25.30;14.10;;;;;;;-4.15;84.62;100212.38;4194555;28;20039;-72
2022/03/20 05:16:17;;;;;;;28.67;15.23;;;;;;;-4.13;83.71;100206.75;4192193;28;20032;-72
2022/03/20 05:18:19;;;;;;;30.88;16.10;;;;;;;-4.12;83.91;100219.22;4193192;28;20470;-72
2022/03/20 05:20:23;;;;;;;31.67;16.15;;;;;;;-4.11;84.10;100210.84;4196769;28;20770;-72
2022/03/20 05:22:23;;;;;;;30.08;14.07;;;;;;;-4.15;83.44;100206.97;4195007;28;20059;-72
2022/03/20 05:24:24;;;;;;;27.70;14.48;;;;;;;-4.16;84.14;100210.75;4191613;28;20048;-72
2022/03/20 05:26:24;;;;;;;30.77;14.93;;;;;;;-4.14;84.37;100216.72;4189839;28;20048;-72
2022/03/20 05:28:24;;;;;;;30.38;15.95;;;;;;;-4.12;85.28;100220.03;4189080;28;20117;-72
2022/03/20 05:30:25;;;;;;;26.67;15.02;;;;;;;-4.09;84.40;100221.41;4190679;28;20531;-72
2022/03/20 05:32:25;;;;;;;29.50;15.95;;;;;;;-4.17;83.63;100213.69;4191736;28;20041;-72
2022/03/20 05:34:27;;;;;;;29.38;15.20;;;;;;;-4.15;84.40;100217.78;4190813;28;20087;-72
2022/03/20 05:36:29;;;;;;;34.20;17.25;;;;;;;-4.17;83.90;100209.09;4189459;28;20322;-72
2022/03/20 05:38:30;;;;;;;31.83;16.42;;;;;;;-4.20;84.58;100211.47;4189827;28;20051;-72
2022/03/20 05:40:31;;;;;;;33.37;17.43;;;;;;;-4.27;84.52;100214.31;4192244;28;20036;-72
2022/03/20 05:42:31;;;;;;;28.75;16.35;;;;;;;-4.29;85.12;100211.84;4189006;28;20282;-72
2022/03/20 05:44:33;;;;;;;29.88;15.93;;;;;;;-4.30;84.78;100220.19;4189008;28;20396;-72
2022/03/20 05:46:33;;;;;;;35.92;17.65;;;;;;;-4.33;84.51;100215.25;4190511;28;20037;-71
2022/03/20 05:48:35;;;;;;;29.80;15.23;;;;;;;-4.39;85.54;100216.19;4192174;28;20036;-72
2022/03/20 05:50:36;;;;;;;32.15;17.45;;;;;;;-4.36;86.10;100221.13;4189289;28;20040;-72
2022/03/20 05:52:36;;;;;;;27.58;14.98;;;;;;;-4.35;85.82;100220.06;4189221;28;20726;-72
2022/03/20 05:54:37;;;;;;;30.80;16.52;;;;;;;-4.32;86.19;100217.69;4190748;28;20277;-72
2022/03/20 05:58:57;;;;;;;29.67;15.60;;;;;;;-4.27;86.55;100223.22;4191184;28;20230;-72
2022/03/20 06:00:57;;;;;;;27.30;15.43;;;;;;;-4.22;86.01;100208.16;4189421;28;20115;-72
2022/03/20 06:02:58;;;;;;;31.45;14.82;;;;;;;-4.21;86.24;100223.34;4190864;28;20091;-72
2022/03/20 06:04:58;;;;;;;31.67;14.27;;;;;;;-4.15;86.17;100222.38;4187020;28;20484;-72
2022/03/20 06:06:58;;;;;;;32.70;16.13;;;;;;;-4.16;85.75;100215.31;4190004;28;20044;-72
2022/03/20 06:08:59;;;;;;;31.42;16.77;;;;;;;-4.13;85.56;100222.97;4194543;28;20476;-72
2022/03/20 06:10:59;;;;;;;30.33;17.13;;;;;;;-4.10;86.45;100234.13;4187402;28;20078;-72
2022/03/20 06:13:03;;;;;;;94.55;36.60;;;;;;;-4.08;86.60;100232.00;4189312;28;20535;-72
2022/03/20 06:15:04;;;;;;;84.00;35.58;;;;;;;-4.09;86.84;100226.81;4190321;28;20044;-71
2022/03/20 06:17:06;;;;;;;116.25;40.97;;;;;;;-4.03;86.29;100228.59;4188461;28;20044;-71
2022/03/20 06:19:07;;;;;;;203.70;64.65;;;;;;;-3.96;86.90;100224.69;4188822;28;20044;-72
2022/03/20 06:21:07;;;;;;;179.85;63.30;;;;;;;-3.93;86.62;100225.25;4188391;28;20126;-72
2022/03/20 06:23:07;;;;;;;159.57;52.53;;;;;;;-3.91;86.74;100226.66;4190763;28;20062;-72
2022/03/20 06:25:08;;;;;;;115.05;43.30;;;;;;;-3.89;86.50;100232.63;4189585;28;20037;-72
2022/03/20 06:27:09;;;;;;;78.72;30.98;;;;;;;-3.85;86.62;100225.69;4188260;28;20097;-72
2022/03/20 06:29:09;;;;;;;66.78;27.13;;;;;;;-3.78;86.45;100236.38;4188494;28;20045;-72
2022/03/20 06:31:13;;;;;;;66.50;27.58;;;;;;;-3.73;86.32;100231.88;4188752;28;20095;-72
2022/03/20 06:33:14;;;;;;;47.97;22.83;;;;;;;-3.63;85.84;100233.97;4189309;28;20159;-72
2022/03/20 06:35:17;;;;;;;58.60;25.40;;;;;;;-3.55;85.21;100228.16;4188947;28;20339;-72
2022/03/20 06:37:17;;;;;;;40.55;20.45;;;;;;;-3.44;84.79;100229.16;4189274;28;20109;-72
2022/03/20 06:39:17;;;;;;;35.50;16.55;;;;;;;-3.37;83.98;100227.13;4186462;28;20041;-72
2022/03/20 06:41:18;;;;;;;38.42;18.77;;;;;;;-3.28;82.77;100225.66;4191665;28;20123;-72
2022/03/20 06:43:18;;;;;;;37.45;17.60;;;;;;;-3.19;82.88;100228.78;4189967;28;20055;-72
2022/03/20 06:45:20;;;;;;;39.38;19.15;;;;;;;-3.11;83.24;100228.38;4189801;28;20040;-72
2022/03/20 06:47:23;;;;;;;37.43;17.67;;;;;;;-3.03;82.21;100233.38;4192349;28;20048;-72
2022/03/20 06:49:24;;;;;;;41.53;18.92;;;;;;;-2.99;82.00;100220.16;4188038;28;20309;-72
2022/03/20 06:51:24;;;;;;;29.40;15.43;;;;;;;-2.91;82.11;100234.09;4190549;28;20442;-72
2022/03/20 06:53:25;;;;;;;32.72;16.00;;;;;;;-2.85;82.09;100226.88;4191416;28;20127;-72
2022/03/20 06:55:25;;;;;;;35.97;17.33;;;;;;;-2.76;81.48;100233.53;4188966;28;20041;-72
2022/03/20 06:57:27;;;;;;;35.35;17.15;;;;;;;-2.71;81.17;100232.78;4187678;28;20571;-72
2022/03/20 06:59:27;;;;;;;35.42;16.80;;;;;;;-2.62;81.64;100234.84;4190060;28;20036;-72
2022/03/20 07:01:28;;;;;;;37.42;17.45;;;;;;;-2.58;80.79;100229.72;4192776;28;20121;-72
2022/03/20 07:03:28;;;;;;;29.08;16.25;;;;;;;-2.51;80.27;100233.09;4188087;28;20271;-72
2022/03/20 07:05:30;;;;;;;26.10;15.68;;;;;;;-2.45;80.57;100232.09;4187924;28;20049;-72
2022/03/20 07:07:30;;;;;;;31.65;14.82;;;;;;;-2.37;80.48;100233.56;4189832;28;20037;-72
2022/03/20 07:09:31;;;;;;;27.52;14.63;;;;;;;-2.31;80.53;100235.28;4134707;28;20314;-72
2022/03/20 07:11:34;;;;;;;28.50;15.85;;;;;;;-2.26;80.59;100235.31;4197298;28;20039;-72
2022/03/20 07:13:50;;;;;;;27.08;14.52;;;;;;;-2.18;79.93;100236.78;4195079;28;20036;-72
2022/03/20 07:15:53;;;;;;;29.88;15.68;;;;;;;-2.09;79.82;100237.97;4192804;28;20287;-72
2022/03/20 07:17:54;;;;;;;30.13;16.00;;;;;;;-2.02;79.45;100241.31;4193135;28;20048;-72
2022/03/20 07:19:55;;;;;;;28.23;14.98;;;;;;;-1.96;78.61;100243.03;4189878;28;20568;-72
2022/03/20 07:21:55;;;;;;;29.42;15.02;;;;;;;-1.89;78.66;100251.00;4190386;28;20052;-72
2022/03/20 07:23:57;;;;;;;30.58;15.63;;;;;;;-1.84;78.36;100249.13;4187944;28;20052;-72
2022/03/20 07:30:36;;;;;;;28.92;15.02;;;;;;;-1.47;77.89;100248.47;4193717;28;20066;-72
2022/03/20 07:32:36;;;;;;;29.85;15.45;;;;;;;-1.35;76.98;100249.13;4193944;28;20044;-72
2022/03/20 07:34:39;;;;;;;27.67;15.48;;;;;;;-1.26;76.72;100244.88;4192435;28;20044;-71
2022/03/20 07:36:39;;;;;;;26.67;14.90;;;;;;;-1.20;75.77;100243.03;4188024;28;20036;-71
2022/03/20 07:38:39;;;;;;;33.17;15.43;;;;;;;-1.20;75.78;100237.59;4193925;28;20047;-72
2022/03/20 07:40:40;;;;;;;31.13;16.30;;;;;;;-1.19;75.76;100237.34;4193642;28;20048;-71
2022/03/20 07:42:40;;;;;;;29.65;15.57;;;;;;;-1.16;76.05;100233.28;4189462;28;20044;-71
2022/03/20 07:44:41;;;;;;;32.40;17.77;;;;;;;-1.09;75.78;100233.06;4191904;28;20044;-73
2022/03/20 07:46:43;;;;;;;29.17;16.40;;;;;;;-1.01;75.65;100235.31;4191508;28;20112;-72
2022/03/20 07:48:43;;;;;;;34.08;16.15;;;;;;;-0.95;75.72;100232.38;4190453;28;20131;-72
2022/03/20 07:50:45;;;;;;;27.98;15.18;;;;;;;-0.92;76.19;100229.13;4194050;28;20365;-72
2022/03/20 07:52:45;;;;;;;29.58;15.65;;;;;;;-0.77;75.36;100222.19;4196875;28;20068;-72
2022/03/20 07:54:46;;;;;;;26.90;14.80;;;;;;;-0.70;75.53;100222.78;4194386;28;20041;-72
2022/03/20 07:56:47;;;;;;;34.35;18.02;;;;;;;-0.58;75.09;100240.56;4189652;28;20044;-72
2022/03/20 07:58:47;;;;;;;26.15;14.75;;;;;;;-0.51;74.97;100232.16;4193159;28;20300;-72
2022/03/20 08:00:48;;;;;;;27.77;14.85;;;;;;;-0.43;75.10;100231.66;4193760;28;20097;-72
2022/03/20 08:02:49;;;;;;;33.33;16.70;;;;;;;-0.35;75.43;100230.34;4193564;28;20052;-72
2022/03/20 08:04:51;;;;;;;35.17;19.27;;;;;;;-0.28;75.53;100226.31;4190354;28;20040;-72
2022/03/20 08:06:52;;;;;;;30.00;16.63;;;;;;;-0.20;74.52;100230.44;4192618;28;20124;-73
2022/03/20 08:08:52;;;;;;;32.83;16.75;;;;;;;-0.12;75.16;100232.66;4193999;28;20094;-73
2022/03/20 08:10:53;;;;;;;31.23;16.63;;;;;;;0.04;73.78;100233.53;4187399;28;20516;-72
2022/03/20 08:12:53;;;;;;;27.92;16.40;;;;;;;0.26;72.25;100228.72;4194495;28;20068;-73
2022/03/20 08:14:56;;;;;;;33.15;17.08;;;;;;;0.41;71.86;100232.56;4192805;28;20056;-73
2022/03/20 08:16:56;;;;;;;35.50;19.63;;;;;;;0.53;71.85;100225.78;4194545;28;20033;-72
2022/03/20 08:18:57;;;;;;;30.20;16.40;;;;;;;0.63;71.98;100227.72;4197832;28;20390;-73
2022/03/20 08:20:57;;;;;;;35.47;17.10;;;;;;;0.67;71.94;100220.66;4200807;28;20036;-72
2022/03/20 08:22:57;;;;;;;34.80;18.38;;;;;;;0.93;70.70;100224.22;4196875;28;20036;-72
2022/03/20 08:24:58;;;;;;;37.50;20.90;;;;;;;1.06;70.49;100215.47;4196749;28;20044;-72
2022/03/20 08:26:58;;;;;;;32.42;17.48;;;;;;;1.20;71.21;100213.03;4194627;28;20057;-71
2022/03/20 08:28:59;;;;;;;29.77;16.10;;;;;;;1.27;70.20;100205.38;4202488;28;20040;-71
2022/03/20 08:30:59;;;;;;;28.23;15.85;;;;;;;1.36;70.00;100202.91;4200810;28;20055;-71
2022/03/20 08:33:00;;;;;;;27.00;16.70;;;;;;;1.46;70.35;100199.34;4198800;28;20052;-71
2022/03/20 08:35:00;;;;;;;33.53;17.75;;;;;;;1.58;69.94;100200.72;4194077;28;20040;-71
2022/03/20 08:37:00;;;;;;;28.90;17.67;;;;;;;1.71;70.30;100188.38;4193274;28;20067;-71
2022/03/20 08:39:01;;;;;;;30.45;16.83;;;;;;;1.88;70.21;100188.03;4194430;28;20040;-71
2022/03/20 08:41:01;;;;;;;31.50;17.50;;;;;;;2.06;70.00;100192.06;4190467;28;20314;-70
2022/03/20 08:43:04;;;;;;;30.00;15.25;;;;;;;2.28;67.78;100195.22;4195094;28;20193;-71
2022/03/20 08:45:05;;;;;;;30.23;16.48;;;;;;;2.43;67.48;100189.69;4193965;28;20068;-70
2022/03/20 08:47:05;;;;;;;41.75;20.77;;;;;;;2.56;66.70;100185.50;4193691;28;20094;-72
2022/03/20 08:49:07;;;;;;;30.30;16.52;;;;;;;2.75;66.38;100180.19;4196922;28;20434;-71
2022/03/20 08:51:07;;;;;;;30.47;16.03;;;;;;;3.00;65.42;100169.03;4196851;28;20040;-71
2022/03/20 08:53:08;;;;;;;30.05;15.98;;;;;;;3.26;63.91;100171.53;4196476;28;20097;-70
2022/03/20 08:55:11;;;;;;;26.88;16.20;;;;;;;3.30;63.76;100161.63;4195846;28;20045;-71
2022/03/20 08:57:15;;;;;;;27.02;14.77;;;;;;;3.41;62.75;100174.13;4196739;28;20083;-71
2022/03/20 08:59:15;;;;;;;28.52;15.55;;;;;;;3.55;62.07;100174.25;4197303;28;20040;-71
2022/03/20 09:01:15;;;;;;;33.42;17.67;;;;;;;3.74;62.71;100172.41;4197048;28;20272;-71
2022/03/20 09:03:15;;;;;;;40.95;17.10;;;;;;;3.98;61.21;100183.34;4195248;28;20565;-71
2022/03/20 09:05:17;;;;;;;30.90;18.10;;;;;;;4.11;61.41;100165.38;4191986;28;20044;-72
2022/03/20 09:07:17;;;;;;;28.90;15.77;;;;;;;4.22;58.92;100170.44;4195522;28;20044;-70
2022/03/20 09:09:18;;;;;;;28.60;16.83;;;;;;;4.34;58.95;100167.25;4194233;28;20148;-71
2022/03/20 09:11:18;;;;;;;29.77;16.02;;;;;;;4.49;57.87;100171.69;4197881;28;20364;-70
2022/03/20 09:13:18;;;;;;;29.63;16.65;;;;;;;4.62;58.50;100161.91;4194637;28;20138;-71
2022/03/20 09:15:19;;;;;;;28.20;15.85;;;;;;;4.64;57.84;100159.69;4201989;28;20072;-71
2022/03/20 09:19:38;;;;;;;28.15;15.68;;;;;;;4.65;57.29;100172.28;4191248;28;20047;-70
2022/03/20 09:21:38;;;;;;;28.65;16.08;;;;;;;4.73;58.83;100168.88;4196901;28;20491;-70
2022/03/20 09:23:39;;;;;;;26.35;15.30;;;;;;;4.80;58.65;100169.31;4197780;28;20044;-72
2022/03/20 09:25:39;;;;;;;30.58;16.73;;;;;;;4.96;56.80;100170.66;4197692;28;20072;-70
2022/03/20 09:27:40;;;;;;;34.17;17.13;;;;;;;5.11;55.55;100164.09;4195438;28;20052;-70
2022/03/20 09:29:40;;;;;;;29.30;16.40;;;;;;;5.22;56.21;100173.00;4193728;28;20032;-71
2022/03/20 09:31:40;;;;;;;29.95;16.55;;;;;;;5.27;55.62;100165.47;4198764;28;20051;-71
2022/03/20 09:33:42;;;;;;;30.48;17.73;;;;;;;5.45;55.38;100173.94;4197436;28;20040;-71
2022/03/20 09:35:42;;;;;;;33.10;16.30;;;;;;;5.52;55.04;100169.69;4195247;28;20372;-71
2022/03/20 09:37:43;;;;;;;28.88;16.77;;;;;;;5.60;55.12;100176.41;4197304;28;20308;-71
2022/03/20 09:39:43;;;;;;;26.23;15.15;;;;;;;5.65;54.52;100173.56;4192092;28;20109;-71
2022/03/20 09:41:47;;;;;;;25.17;15.02;;;;;;;5.54;55.42;100164.69;4198694;28;20384;-71
2022/03/20 09:43:47;;;;;;;26.67;14.52;;;;;;;5.62;54.61;100166.72;4194593;28;20589;-71
2022/03/20 09:45:52;;;;;;;31.90;17.67;;;;;;;5.80;53.43;100166.97;4198467;28;20052;-71
2022/03/20 09:47:53;;;;;;;28.83;14.55;;;;;;;5.90;53.56;100166.75;4198538;28;20036;-70